Aviation Digital Data Service (ADDS)

Output produced by METARs form (2111 UTC 16 February 2019)
found at http://www.aviationweather.gov/metar/data/
 
METAR text: SBRJ 162100Z 18009KT 9999 FEW008 SCT090 27/25 Q1006
Conditions at: SBRJ (SANTOS DUMONT/RI, BR) observed 2100 UTC 16 February 2019
Temperature: 27.0°C (81°F)
Dewpoint: 25.0°C (77°F) [RH = 89%]
Pressure (altimeter): 29.70 inches Hg (1006.0 mb)
Winds: from the S (180 degrees) at 10 MPH (9 knots; 4.6 m/s)
Visibility: 6 or more miles (10+ km)
Ceiling: at least 12,000 feet AGL
Clouds: few clouds at 800 feet AGL
scattered clouds at 9000 feet AGL
Weather: no significant weather observed at this time

METAR text: SBRJ 162000Z 19008KT 9999 FEW030 BKN090 28/25 Q1005
Conditions at: SBRJ (SANTOS DUMONT/RI, BR) observed 2000 UTC 16 February 2019
Temperature: 28.0°C (82°F)
Dewpoint: 25.0°C (77°F) [RH = 84%]
Pressure (altimeter): 29.68 inches Hg (1005.0 mb)
Winds: from the S (190 degrees) at 9 MPH (8 knots; 4.1 m/s)
Visibility: 6 or more miles (10+ km)
Ceiling: 9000 feet AGL
Clouds: few clouds at 3000 feet AGL
broken clouds at 9000 feet AGL
Weather: no significant weather observed at this time

METAR text: SBRJ 161900Z 17009KT 9999 SCT025 BKN040 BKN080 27/25 Q1005
Conditions at: SBRJ (SANTOS DUMONT/RI, BR) observed 1900 UTC 16 February 2019
Temperature: 27.0°C (81°F)
Dewpoint: 25.0°C (77°F) [RH = 89%]
Pressure (altimeter): 29.68 inches Hg (1005.0 mb)
Winds: from the S (170 degrees) at 10 MPH (9 knots; 4.6 m/s)
Visibility: 6 or more miles (10+ km)
Ceiling: 4000 feet AGL
Clouds: scattered clouds at 2500 feet AGL
broken clouds at 4000 feet AGL
broken clouds at 8000 feet AGL
Weather: no significant weather observed at this time

METAR text: SBRJ 161800Z 16008KT 9999 FEW025 SCT045 BKN080 29/25 Q1006
Conditions at: SBRJ (SANTOS DUMONT/RI, BR) observed 1800 UTC 16 February 2019
Temperature: 29.0°C (84°F)
Dewpoint: 25.0°C (77°F) [RH = 79%]
Pressure (altimeter): 29.70 inches Hg (1006.0 mb)
Winds: from the SSE (160 degrees) at 9 MPH (8 knots; 4.1 m/s)
Visibility: 6 or more miles (10+ km)
Ceiling: 8000 feet AGL
Clouds: few clouds at 2500 feet AGL
scattered clouds at 4500 feet AGL
broken clouds at 8000 feet AGL
Weather: no significant weather observed at this time

METAR text: SBRJ 161700Z 04002KT 9999 FEW025 SCT045 BKN070 29/25 Q1006
Conditions at: SBRJ (SANTOS DUMONT/RI, BR) observed 1700 UTC 16 February 2019
Temperature: 29.0°C (84°F)
Dewpoint: 25.0°C (77°F) [RH = 79%]
Pressure (altimeter): 29.70 inches Hg (1006.0 mb)
Winds: from the NE (40 degrees) at 2 MPH (2 knots; 1.0 m/s)
Visibility: 6 or more miles (10+ km)
Ceiling: 7000 feet AGL
Clouds: few clouds at 2500 feet AGL
scattered clouds at 4500 feet AGL
broken clouds at 7000 feet AGL
Weather: no significant weather observed at this time

METAR text: SBRJ 161600Z 34004KT 9999 FEW020 SCT050 29/25 Q1007
Conditions at: SBRJ (SANTOS DUMONT/RI, BR) observed 1600 UTC 16 February 2019
Temperature: 29.0°C (84°F)
Dewpoint: 25.0°C (77°F) [RH = 79%]
Pressure (altimeter): 29.73 inches Hg (1007.0 mb)
Winds: from the NNW (340 degrees) at 5 MPH (4 knots; 2.1 m/s)
Visibility: 6 or more miles (10+ km)
Ceiling: at least 12,000 feet AGL
Clouds: few clouds at 2000 feet AGL
scattered clouds at 5000 feet AGL
Weather: no significant weather observed at this time

METAR text: SBRJ 161500Z 32003KT 9999 FEW035 SCT050 BKN100 28/25 Q1007
Conditions at: SBRJ (SANTOS DUMONT/RI, BR) observed 1500 UTC 16 February 2019
Temperature: 28.0°C (82°F)
Dewpoint: 25.0°C (77°F) [RH = 84%]
Pressure (altimeter): 29.73 inches Hg (1007.0 mb)
Winds: from the NW (320 degrees) at 3 MPH (3 knots; 1.5 m/s)
Visibility: 6 or more miles (10+ km)
Ceiling: 10000 feet AGL
Clouds: few clouds at 3500 feet AGL
scattered clouds at 5000 feet AGL
broken clouds at 10000 feet AGL
Weather: no significant weather observed at this time

METAR text: SBRJ 161400Z 17006KT 9999 -RA SCT020 BKN100 27/25 Q1007
Conditions at: SBRJ (SANTOS DUMONT/RI, BR) observed 1400 UTC 16 February 2019
Temperature: 27.0°C (81°F)
Dewpoint: 25.0°C (77°F) [RH = 89%]
Pressure (altimeter): 29.73 inches Hg (1007.0 mb)
Winds: from the S (170 degrees) at 7 MPH (6 knots; 3.1 m/s)
Visibility: 6 or more miles (10+ km)
Ceiling: 10000 feet AGL
Clouds: scattered clouds at 2000 feet AGL
broken clouds at 10000 feet AGL
Weather: -RA  (light rain)

METAR text: SBRJ 161300Z 17005KT 9999 -RA SCT020 OVC090 25/24 Q1008
Conditions at: SBRJ (SANTOS DUMONT/RI, BR) observed 1300 UTC 16 February 2019
Temperature: 25.0°C (77°F)
Dewpoint: 24.0°C (75°F) [RH = 94%]
Pressure (altimeter): 29.76 inches Hg (1008.0 mb)
Winds: from the S (170 degrees) at 6 MPH (5 knots; 2.6 m/s)
Visibility: 6 or more miles (10+ km)
Ceiling: 9000 feet AGL
Clouds: scattered clouds at 2000 feet AGL
overcast cloud deck at 9000 feet AGL
Weather: -RA  (light rain)

METAR text: SBRJ 161200Z 17004KT 9999 -RA SCT020 OVC090 25/24 Q1007
Conditions at: SBRJ (SANTOS DUMONT/RI, BR) observed 1200 UTC 16 February 2019
Temperature: 25.0°C (77°F)
Dewpoint: 24.0°C (75°F) [RH = 94%]
Pressure (altimeter): 29.73 inches Hg (1007.0 mb)
Winds: from the S (170 degrees) at 5 MPH (4 knots; 2.1 m/s)
Visibility: 6 or more miles (10+ km)
Ceiling: 9000 feet AGL
Clouds: scattered clouds at 2000 feet AGL
overcast cloud deck at 9000 feet AGL
Weather: -RA  (light rain)

METAR text: SBRJ 161100Z 16003KT 8000 -RA FEW018 SCT040 OVC090 25/23 Q1007
Conditions at: SBRJ (SANTOS DUMONT/RI, BR) observed 1100 UTC 16 February 2019
Temperature: 25.0°C (77°F)
Dewpoint: 23.0°C (73°F) [RH = 89%]
Pressure (altimeter): 29.73 inches Hg (1007.0 mb)
Winds: from the SSE (160 degrees) at 3 MPH (3 knots; 1.5 m/s)
Visibility: 5 miles ( 8 km)
Ceiling: 9000 feet AGL
Clouds: few clouds at 1800 feet AGL
scattered clouds at 4000 feet AGL
overcast cloud deck at 9000 feet AGL
Weather: -RA  (light rain)

METAR text: SBRJ 161000Z 22003KT 9000 -RA FEW018 SCT040 OVC090 24/23 Q1007
Conditions at: SBRJ (SANTOS DUMONT/RI, BR) observed 1000 UTC 16 February 2019
Temperature: 24.0°C (75°F)
Dewpoint: 23.0°C (73°F) [RH = 94%]
Pressure (altimeter): 29.73 inches Hg (1007.0 mb)
Winds: from the SW (220 degrees) at 3 MPH (3 knots; 1.5 m/s)
Visibility: 6 miles ( 9 km)
Ceiling: 9000 feet AGL
Clouds: few clouds at 1800 feet AGL
scattered clouds at 4000 feet AGL
overcast cloud deck at 9000 feet AGL
Weather: -RA  (light rain)

METAR text: SBRJ 160900Z 26002KT 9000 -RA FEW018 SCT040 OVC090 24/23 Q1006
Conditions at: SBRJ (SANTOS DUMONT/RI, BR) observed 0900 UTC 16 February 2019
Temperature: 24.0°C (75°F)
Dewpoint: 23.0°C (73°F) [RH = 94%]
Pressure (altimeter): 29.70 inches Hg (1006.0 mb)
Winds: from the W (260 degrees) at 2 MPH (2 knots; 1.0 m/s)
Visibility: 6 miles ( 9 km)
Ceiling: 9000 feet AGL
Clouds: few clouds at 1800 feet AGL
scattered clouds at 4000 feet AGL
overcast cloud deck at 9000 feet AGL
Weather: -RA  (light rain)

METAR text: SBRJ 160800Z 31003KT 9999 -RA BKN040 OVC090 24/23 Q1006
Conditions at: SBRJ (SANTOS DUMONT/RI, BR) observed 0800 UTC 16 February 2019
Temperature: 24.0°C (75°F)
Dewpoint: 23.0°C (73°F) [RH = 94%]
Pressure (altimeter): 29.70 inches Hg (1006.0 mb)
Winds: from the NW (310 degrees) at 3 MPH (3 knots; 1.5 m/s)
Visibility: 6 or more miles (10+ km)
Ceiling: 4000 feet AGL
Clouds: broken clouds at 4000 feet AGL
overcast cloud deck at 9000 feet AGL
Weather: -RA  (light rain)

METAR text: SBRJ 160700Z 01004KT 8000 -RA FEW020 BKN040 OVC080 24/22 Q1006
Conditions at: SBRJ (SANTOS DUMONT/RI, BR) observed 0700 UTC 16 February 2019
Temperature: 24.0°C (75°F)
Dewpoint: 22.0°C (72°F) [RH = 89%]
Pressure (altimeter): 29.70 inches Hg (1006.0 mb)
Winds: from the N (10 degrees) at 5 MPH (4 knots; 2.1 m/s)
Visibility: 5 miles ( 8 km)
Ceiling: 4000 feet AGL
Clouds: few clouds at 2000 feet AGL
broken clouds at 4000 feet AGL
overcast cloud deck at 8000 feet AGL
Weather: -RA  (light rain)

METAR text: SBRJ 160600Z 33004KT 9999 -RA BKN040 OVC080 24/23 Q1007
Conditions at: SBRJ (SANTOS DUMONT/RI, BR) observed 0600 UTC 16 February 2019
Temperature: 24.0°C (75°F)
Dewpoint: 23.0°C (73°F) [RH = 94%]
Pressure (altimeter): 29.73 inches Hg (1007.0 mb)
Winds: from the NNW (330 degrees) at 5 MPH (4 knots; 2.1 m/s)
Visibility: 6 or more miles (10+ km)
Ceiling: 4000 feet AGL
Clouds: broken clouds at 4000 feet AGL
overcast cloud deck at 8000 feet AGL
Weather: -RA  (light rain)

METAR text: SBRJ 160500Z 22002KT 9999 -RA SCT040 OVC080 24/22 Q1007
Conditions at: SBRJ (SANTOS DUMONT/RI, BR) observed 0500 UTC 16 February 2019
Temperature: 24.0°C (75°F)
Dewpoint: 22.0°C (72°F) [RH = 89%]
Pressure (altimeter): 29.73 inches Hg (1007.0 mb)
Winds: from the SW (220 degrees) at 2 MPH (2 knots; 1.0 m/s)
Visibility: 6 or more miles (10+ km)
Ceiling: 8000 feet AGL
Clouds: scattered clouds at 4000 feet AGL
overcast cloud deck at 8000 feet AGL
Weather: -RA  (light rain)

METAR text: SBRJ 160400Z 18001KT 9999 -RA SCT040 OVC080 24/22 Q1007
Conditions at: SBRJ (SANTOS DUMONT/RI, BR) observed 0400 UTC 16 February 2019
Temperature: 24.0°C (75°F)
Dewpoint: 22.0°C (72°F) [RH = 89%]
Pressure (altimeter): 29.73 inches Hg (1007.0 mb)
Winds: from the S (180 degrees) at 1 MPH (1 knots; 0.5 m/s)
Visibility: 6 or more miles (10+ km)
Ceiling: 8000 feet AGL
Clouds: scattered clouds at 4000 feet AGL
overcast cloud deck at 8000 feet AGL
Weather: -RA  (light rain)

METAR text: SBRJ 160300Z 16002KT 9999 FEW030 SCT040 BKN080 25/22 Q1008
Conditions at: SBRJ (SANTOS DUMONT/RI, BR) observed 0300 UTC 16 February 2019
Temperature: 25.0°C (77°F)
Dewpoint: 22.0°C (72°F) [RH = 83%]
Pressure (altimeter): 29.76 inches Hg (1008.0 mb)
Winds: from the SSE (160 degrees) at 2 MPH (2 knots; 1.0 m/s)
Visibility: 6 or more miles (10+ km)
Ceiling: 8000 feet AGL
Clouds: few clouds at 3000 feet AGL
scattered clouds at 4000 feet AGL
broken clouds at 8000 feet AGL
Weather: no significant weather observed at this time

METAR text: SBRJ 160200Z 07004KT 9999 -RA FEW030 BKN040 BKN080 25/22 Q1008
Conditions at: SBRJ (SANTOS DUMONT/RI, BR) observed 0200 UTC 16 February 2019
Temperature: 25.0°C (77°F)
Dewpoint: 22.0°C (72°F) [RH = 83%]
Pressure (altimeter): 29.76 inches Hg (1008.0 mb)
Winds: from the ENE (70 degrees) at 5 MPH (4 knots; 2.1 m/s)
Visibility: 6 or more miles (10+ km)
Ceiling: 4000 feet AGL
Clouds: few clouds at 3000 feet AGL
broken clouds at 4000 feet AGL
broken clouds at 8000 feet AGL
Weather: -RA  (light rain)

METAR text: SBRJ 160100Z 06006KT 9999 -RA FEW030 BKN040 BKN080 25/22 Q1009
Conditions at: SBRJ (SANTOS DUMONT/RI, BR) observed 0100 UTC 16 February 2019
Temperature: 25.0°C (77°F)
Dewpoint: 22.0°C (72°F) [RH = 83%]
Pressure (altimeter): 29.79 inches Hg (1009.0 mb)
Winds: from the ENE (60 degrees) at 7 MPH (6 knots; 3.1 m/s)
Visibility: 6 or more miles (10+ km)
Ceiling: 4000 feet AGL
Clouds: few clouds at 3000 feet AGL
broken clouds at 4000 feet AGL
broken clouds at 8000 feet AGL
Weather: -RA  (light rain)

METAR text: SBRJ 160000Z 08005KT 9999 BKN045 BKN080 25/21 Q1008
Conditions at: SBRJ (SANTOS DUMONT/RI, BR) observed 0000 UTC 16 February 2019
Temperature: 25.0°C (77°F)
Dewpoint: 21.0°C (70°F) [RH = 79%]
Pressure (altimeter): 29.76 inches Hg (1008.0 mb)
Winds: from the E (80 degrees) at 6 MPH (5 knots; 2.6 m/s)
Visibility: 6 or more miles (10+ km)
Ceiling: 4500 feet AGL
Clouds: broken clouds at 4500 feet AGL
broken clouds at 8000 feet AGL
Weather: no significant weather observed at this time

METAR text: SBRJ 152300Z 07007KT 9999 BKN040 BKN080 26/22 Q1008
Conditions at: SBRJ (SANTOS DUMONT/RI, BR) observed 2300 UTC 15 February 2019
Temperature: 26.0°C (79°F)
Dewpoint: 22.0°C (72°F) [RH = 79%]
Pressure (altimeter): 29.76 inches Hg (1008.0 mb)
Winds: from the ENE (70 degrees) at 8 MPH (7 knots; 3.6 m/s)
Visibility: 6 or more miles (10+ km)
Ceiling: 4000 feet AGL
Clouds: broken clouds at 4000 feet AGL
broken clouds at 8000 feet AGL
Weather: no significant weather observed at this time

METAR text: SBRJ 152200Z 06009KT 9999 BKN040 BKN070 26/22 Q1008
Conditions at: SBRJ (SANTOS DUMONT/RI, BR) observed 2200 UTC 15 February 2019
Temperature: 26.0°C (79°F)
Dewpoint: 22.0°C (72°F) [RH = 79%]
Pressure (altimeter): 29.76 inches Hg (1008.0 mb)
Winds: from the ENE (60 degrees) at 10 MPH (9 knots; 4.6 m/s)
Visibility: 6 or more miles (10+ km)
Ceiling: 4000 feet AGL
Clouds: broken clouds at 4000 feet AGL
broken clouds at 7000 feet AGL
Weather: no significant weather observed at this time

METAR text: SBRJ 152100Z 07008KT 9999 FEW010 SCT045 BKN070 27/22 Q1008
Conditions at: SBRJ (SANTOS DUMONT/RI, BR) observed 2100 UTC 15 February 2019
Temperature: 27.0°C (81°F)
Dewpoint: 22.0°C (72°F) [RH = 74%]
Pressure (altimeter): 29.76 inches Hg (1008.0 mb)
Winds: from the ENE (70 degrees) at 9 MPH (8 knots; 4.1 m/s)
Visibility: 6 or more miles (10+ km)
Ceiling: 7000 feet AGL
Clouds: few clouds at 1000 feet AGL
scattered clouds at 4500 feet AGL
broken clouds at 7000 feet AGL
Weather: no significant weather observed at this time

METAR text: SBRJ 152030Z 05008KT 9999 FEW010 SCT020 BKN070 27/23 Q1008
Conditions at: SBRJ (SANTOS DUMONT/RI, BR) observed 2030 UTC 15 February 2019
Temperature: 27.0°C (81°F)
Dewpoint: 23.0°C (73°F) [RH = 79%]
Pressure (altimeter): 29.76 inches Hg (1008.0 mb)
Winds: from the NE (50 degrees) at 9 MPH (8 knots; 4.1 m/s)
Visibility: 6 or more miles (10+ km)
Ceiling: 7000 feet AGL
Clouds: few clouds at 1000 feet AGL
scattered clouds at 2000 feet AGL
broken clouds at 7000 feet AGL
Weather: no significant weather observed at this time

METAR text: SBRJ 152000Z 15006KT 9999 FEW010 SCT020 BKN070 27/23 Q1008
Conditions at: SBRJ (SANTOS DUMONT/RI, BR) observed 2000 UTC 15 February 2019
Temperature: 27.0°C (81°F)
Dewpoint: 23.0°C (73°F) [RH = 79%]
Pressure (altimeter): 29.76 inches Hg (1008.0 mb)
Winds: from the SSE (150 degrees) at 7 MPH (6 knots; 3.1 m/s)
Visibility: 6 or more miles (10+ km)
Ceiling: 7000 feet AGL
Clouds: few clouds at 1000 feet AGL
scattered clouds at 2000 feet AGL
broken clouds at 7000 feet AGL
Weather: no significant weather observed at this time

METAR text: SBRJ 151900Z 13006KT 9999 FEW010 SCT020 BKN070 27/23 Q1009
Conditions at: SBRJ (SANTOS DUMONT/RI, BR) observed 1900 UTC 15 February 2019
Temperature: 27.0°C (81°F)
Dewpoint: 23.0°C (73°F) [RH = 79%]
Pressure (altimeter): 29.79 inches Hg (1009.0 mb)
Winds: from the SE (130 degrees) at 7 MPH (6 knots; 3.1 m/s)
Visibility: 6 or more miles (10+ km)
Ceiling: 7000 feet AGL
Clouds: few clouds at 1000 feet AGL
scattered clouds at 2000 feet AGL
broken clouds at 7000 feet AGL
Weather: no significant weather observed at this time

METAR text: SBRJ 151800Z 15004KT 9999 FEW010 SCT020 BKN070 28/24 Q1009
Conditions at: SBRJ (SANTOS DUMONT/RI, BR) observed 1800 UTC 15 February 2019
Temperature: 28.0°C (82°F)
Dewpoint: 24.0°C (75°F) [RH = 79%]
Pressure (altimeter): 29.79 inches Hg (1009.0 mb)
Winds: from the SSE (150 degrees) at 5 MPH (4 knots; 2.1 m/s)
Visibility: 6 or more miles (10+ km)
Ceiling: 7000 feet AGL
Clouds: few clouds at 1000 feet AGL
scattered clouds at 2000 feet AGL
broken clouds at 7000 feet AGL
Weather: no significant weather observed at this time

METAR text: SBRJ 151700Z 15010KT 9999 FEW010 SCT020 OVC080 27/23 Q1010
Conditions at: SBRJ (SANTOS DUMONT/RI, BR) observed 1700 UTC 15 February 2019
Temperature: 27.0°C (81°F)
Dewpoint: 23.0°C (73°F) [RH = 79%]
Pressure (altimeter): 29.82 inches Hg (1010.0 mb)
Winds: from the SSE (150 degrees) at 12 MPH (10 knots; 5.1 m/s)
Visibility: 6 or more miles (10+ km)
Ceiling: 8000 feet AGL
Clouds: few clouds at 1000 feet AGL
scattered clouds at 2000 feet AGL
overcast cloud deck at 8000 feet AGL
Weather: no significant weather observed at this time

METAR text: SBRJ 151600Z 16007KT 9999 FEW010 SCT018 OVC080 26/23 Q1011
Conditions at: SBRJ (SANTOS DUMONT/RI, BR) observed 1600 UTC 15 February 2019
Temperature: 26.0°C (79°F)
Dewpoint: 23.0°C (73°F) [RH = 84%]
Pressure (altimeter): 29.85 inches Hg (1011.0 mb)
Winds: from the SSE (160 degrees) at 8 MPH (7 knots; 3.6 m/s)
Visibility: 6 or more miles (10+ km)
Ceiling: 8000 feet AGL
Clouds: few clouds at 1000 feet AGL
scattered clouds at 1800 feet AGL
overcast cloud deck at 8000 feet AGL
Weather: no significant weather observed at this time

METAR text: SBRJ 151500Z 16008KT 8000 SCT018 OVC080 26/22 Q1011
Conditions at: SBRJ (SANTOS DUMONT/RI, BR) observed 1500 UTC 15 February 2019
Temperature: 26.0°C (79°F)
Dewpoint: 22.0°C (72°F) [RH = 79%]
Pressure (altimeter): 29.85 inches Hg (1011.0 mb)
Winds: from the SSE (160 degrees) at 9 MPH (8 knots; 4.1 m/s)
Visibility: 5 miles ( 8 km)
Ceiling: 8000 feet AGL
Clouds: scattered clouds at 1800 feet AGL
overcast cloud deck at 8000 feet AGL
Weather: no significant weather observed at this time

METAR text: SBRJ 151440Z 16006KT 8000 -RA SCT013 OVC080 25/22 Q1011
Conditions at: SBRJ (SANTOS DUMONT/RI, BR) observed 1440 UTC 15 February 2019
Temperature: 25.0°C (77°F)
Dewpoint: 22.0°C (72°F) [RH = 83%]
Pressure (altimeter): 29.85 inches Hg (1011.0 mb)
Winds: from the SSE (160 degrees) at 7 MPH (6 knots; 3.1 m/s)
Visibility: 5 miles ( 8 km)
Ceiling: 8000 feet AGL
Clouds: scattered clouds at 1300 feet AGL
overcast cloud deck at 8000 feet AGL
Weather: -RA  (light rain)

METAR text: SBRJ 151400Z 15007KT CAVOK 26/21 Q1011
Conditions at: SBRJ (SANTOS DUMONT/RI, BR) observed 1400 UTC 15 February 2019
Temperature: 26.0°C (79°F)
Dewpoint: 21.0°C (70°F) [RH = 74%]
Pressure (altimeter): 29.85 inches Hg (1011.0 mb)
Winds: from the SSE (150 degrees) at 8 MPH (7 knots; 3.6 m/s)
Visibility: 6 or more miles (10+ km)
Ceiling: ceiling and visibility are OK
Clouds: unknown
Weather: no significant weather observed at this time

METAR text: SBRJ 151300Z 16005KT CAVOK 27/21 Q1012
Conditions at: SBRJ (SANTOS DUMONT/RI, BR) observed 1300 UTC 15 February 2019
Temperature: 27.0°C (81°F)
Dewpoint: 21.0°C (70°F) [RH = 70%]
Pressure (altimeter): 29.88 inches Hg (1012.0 mb)
Winds: from the SSE (160 degrees) at 6 MPH (5 knots; 2.6 m/s)
Visibility: 6 or more miles (10+ km)
Ceiling: ceiling and visibility are OK
Clouds: unknown
Weather: no significant weather observed at this time

METAR text: SBRJ 151200Z 14001KT CAVOK 28/20 Q1012
Conditions at: SBRJ (SANTOS DUMONT/RI, BR) observed 1200 UTC 15 February 2019
Temperature: 28.0°C (82°F)
Dewpoint: 20.0°C (68°F) [RH = 62%]
Pressure (altimeter): 29.88 inches Hg (1012.0 mb)
Winds: from the SE (140 degrees) at 1 MPH (1 knots; 0.5 m/s)
Visibility: 6 or more miles (10+ km)
Ceiling: ceiling and visibility are OK
Clouds: unknown
Weather: no significant weather observed at this time

METAR text: SBRJ 151100Z 13003KT CAVOK 26/21 Q1012
Conditions at: SBRJ (SANTOS DUMONT/RI, BR) observed 1100 UTC 15 February 2019
Temperature: 26.0°C (79°F)
Dewpoint: 21.0°C (70°F) [RH = 74%]
Pressure (altimeter): 29.88 inches Hg (1012.0 mb)
Winds: from the SE (130 degrees) at 3 MPH (3 knots; 1.5 m/s)
Visibility: 6 or more miles (10+ km)
Ceiling: ceiling and visibility are OK
Clouds: unknown
Weather: no significant weather observed at this time

METAR text: SBRJ 151000Z 11001KT CAVOK 25/20 Q1012
Conditions at: SBRJ (SANTOS DUMONT/RI, BR) observed 1000 UTC 15 February 2019
Temperature: 25.0°C (77°F)
Dewpoint: 20.0°C (68°F) [RH = 74%]
Pressure (altimeter): 29.88 inches Hg (1012.0 mb)
Winds: from the ESE (110 degrees) at 1 MPH (1 knots; 0.5 m/s)
Visibility: 6 or more miles (10+ km)
Ceiling: ceiling and visibility are OK
Clouds: unknown
Weather: no significant weather observed at this time

Forecast for: SBRJ (SANTOS DUMONT/RI, BR)
Text: TAF SBRJ 161540Z 1618/1706 26005KT 7000 SCT017 TX27/1618Z TN23/1706Z
Forecast period: 1800 UTC 16 February 2019 to 0600 UTC 17 February 2019
Forecast type: FROM: standard forecast or significant change
Winds: from the W (260 degrees) at 6 MPH (5 knots; 2.6 m/s)
Visibility: 4 miles (7 km)
Ceiling: at least 12,000 feet AGL
Clouds: scattered clouds at 1700 feet AGL
Weather: no significant weather forecast for this period
Text: BECMG 1618/1621 18007KT 4000 BR
Forecast period: 1800 to 2100 UTC 16 February 2019
Forecast type: BECOMING: Conditions expected to become as follows by 2100 UTC 16 February 2019
Winds: from the S (180 degrees) at 8 MPH (7 knots; 3.6 m/s)
Visibility: 2.49 miles (4.01 km)
Ceiling: at least 12,000 feet AGL
Clouds: scattered clouds at 1700 feet AGL
Weather: BR  (mist)
Text: BECMG 1621/1623 16007KT 7000 NSW
Forecast period: 2100 UTC 16 February 2019 to 0300 UTC 17 February 2019
Forecast type: BECOMING: Conditions expected to become as follows by 2300 UTC 16 February 2019
Winds: from the SSE (160 degrees) at 8 MPH (7 knots; 3.6 m/s)
Visibility: 4 miles (7 km)
Ceiling: at least 12,000 feet AGL
Clouds: scattered clouds at 1700 feet AGL
Weather: NSW  (no significant weather)
Text: BECMG 1703/1705 23005KT 4000 RA BKN017 RMK PGW
Forecast period: 0300 to 0600 UTC 17 February 2019
Forecast type: BECOMING: Conditions expected to become as follows by 0500 UTC 17 February 2019
Winds: from the SW (230 degrees) at 6 MPH (5 knots; 2.6 m/s)
Visibility: 2.49 miles (4.01 km)
Ceiling: 1700 feet AGL
Clouds: broken clouds at 1700 feet AGL
Weather: RA  (moderate rain)